Time;durP1;ratioP1;P1;durP2;ratioP2;P2;SDS_P1;SDS_P2;PMS_P1;PMS_P2;Temp;Humidity;BMP_temperature;BMP_pressure;BME280_temperature;BME280_humidity;BME280_pressure;Samples;Min_cycle;Max_cycle;Signal;HPM_P1;HPM_P2
2021/03/05 00:02:53;;;;;;;;;;;;;;;;;;;;;
2021/03/05 00:29:45;;;;;;;17.77;8.13;;;4.90;82.90;;;;;;6240094;22;20391;-95
2021/03/05 00:47:07;;;;;;;15.65;6.13;;;5.00;83.90;;;;;;6260572;22;20373;-96
2021/03/05 00:59:31;;;;;;;26.85;9.95;;;4.90;87.20;;;;;;6169618;23;20403;-96
2021/03/05 01:02:25;;;;;;;22.42;8.93;;;4.80;89.10;;;;;;6113683;23;20394;-96
2021/03/05 01:05:06;;;;;;;22.52;9.15;;;4.60;91.40;;;;;;6086872;23;20396;-96
2021/03/05 01:07:36;;;;;;;20.98;9.23;;;4.40;93.10;;;;;;6141916;23;20411;-95
2021/03/05 01:10:23;;;;;;;27.23;10.85;;;4.30;94.40;;;;;;6138967;23;20379;-96
2021/03/05 01:12:52;;;;;;;32.75;15.82;;;4.10;95.50;;;;;;6138011;23;20426;-96
2021/03/05 01:15:19;;;;;;;32.50;14.07;;;4.00;96.50;;;;;;6139044;23;20490;-95
2021/03/05 01:17:53;;;;;;;24.38;10.98;;;3.80;97.20;;;;;;6141092;23;20419;-96
2021/03/05 01:20:45;;;;;;;32.50;16.83;;;3.60;97.80;;;;;;6141730;23;20375;-96
2021/03/05 01:23:36;;;;;;;28.83;12.63;;;3.70;98.80;;;;;;6167806;23;20822;-95
2021/03/05 01:26:22;;;;;;;36.95;18.35;;;3.60;99.90;;;;;;6137405;23;20391;-96
2021/03/05 01:29:12;;;;;;;31.92;15.02;;;3.60;99.90;;;;;;6165583;23;20416;-96
2021/03/05 01:31:45;;;;;;;30.73;13.30;;;3.50;99.90;;;;;;6138310;23;20454;-96
2021/03/05 01:34:13;;;;;;;52.35;24.98;;;3.40;99.90;;;;;;6138395;23;20541;-96
2021/03/05 01:36:40;;;;;;;42.22;20.45;;;3.40;99.90;;;;;;6210340;23;20894;-95
2021/03/05 01:39:06;;;;;;;55.22;25.58;;;3.40;99.90;;;;;;6232054;23;20398;-96
2021/03/05 01:42:18;;;;;;;25.17;12.48;;;3.30;99.90;;;;;;6235200;23;20402;-96
2021/03/05 01:45:11;;;;;;;52.73;22.90;;;3.20;99.90;;;;;;6259294;23;20421;-96
2021/03/05 01:47:44;;;;;;;63.60;27.67;;;3.20;99.90;;;;;;6263099;23;20409;-96
2021/03/05 01:53:03;;;;;;;51.60;25.90;;;2.90;99.90;;;;;;6238695;22;20434;-96
2021/03/05 01:55:35;;;;;;;45.75;23.05;;;2.90;99.90;;;;;;6266667;22;20388;-96
2021/03/05 01:58:19;;;;;;;65.82;31.48;;;2.80;99.90;;;;;;6262548;22;20394;-95
2021/03/05 02:01:07;;;;;;;42.45;16.05;;;2.70;99.90;;;;;;6236956;23;20390;-96
2021/03/05 02:07:30;;;;;;;294.65;32.08;;;2.60;99.90;;;;;;6261513;23;20469;-96
2021/03/05 02:10:07;;;;;;;40.63;17.80;;;2.60;99.90;;;;;;6117988;23;20428;-96
2021/03/05 02:12:48;;;;;;;40.75;12.88;;;2.40;99.90;;;;;;6091098;23;20369;-96
2021/03/05 02:15:39;;;;;;;22.38;9.57;;;2.50;99.90;;;;;;6141438;23;20416;-96
2021/03/05 02:18:55;;;;;;;44.33;20.25;;;2.40;99.90;;;;;;6092096;23;20393;-96
2021/03/05 02:22:17;;;;;;;12.02;6.30;;;2.30;99.90;;;;;;6041397;23;20390;-96
2021/03/05 02:25:19;;;;;;;23.77;11.30;;;2.30;99.90;;;;;;6052893;23;20397;-96
2021/03/05 02:28:08;;;;;;;33.20;11.77;;;2.20;99.90;;;;;;6051258;23;20438;-96
2021/03/05 02:31:15;;;;;;;27.65;11.52;;;2.20;99.90;;;;;;6050854;23;20421;-96
2021/03/05 02:34:13;;;;;;;31.92;16.05;;;2.20;99.90;;;;;;6049401;23;20390;-95
2021/03/05 02:36:52;;;;;;;12.82;6.53;;;2.20;99.90;;;;;;6040819;23;20403;-96
2021/03/05 02:39:24;;;;;;;8.80;4.07;;;2.10;99.90;;;;;;6048804;23;20440;-95
2021/03/05 02:41:58;;;;;;;10.73;5.30;;;2.10;99.90;;;;;;6068695;22;20906;-96
2021/03/05 02:44:56;;;;;;;9.30;4.53;;;2.10;99.90;;;;;;6232133;23;20444;-96
2021/03/05 02:47:54;;;;;;;17.00;7.53;;;2.30;99.90;;;;;;6198648;23;20374;-96
2021/03/05 02:50:37;;;;;;;14.43;7.18;;;2.10;99.90;;;;;;6232580;23;20393;-96
2021/03/05 02:53:28;;;;;;;12.83;5.87;;;2.20;99.90;;;;;;6230217;23;20382;-96
2021/03/05 02:56:38;;;;;;;142.02;13.00;;;2.20;99.90;;;;;;6225518;23;20418;-96
2021/03/05 02:59:37;;;;;;;16.38;6.18;;;2.30;99.90;;;;;;6204092;23;20399;-96
2021/03/05 03:02:22;;;;;;;1103.78;65.25;;;2.30;99.90;;;;;;6202422;23;20390;-95
2021/03/05 03:05:24;;;;;;;802.60;36.10;;;2.30;99.90;;;;;;6168774;23;20411;-96
2021/03/05 03:08:17;;;;;;;970.53;39.77;;;2.30;99.90;;;;;;6150899;23;20896;-95
2021/03/05 03:11:21;;;;;;;662.83;31.95;;;2.30;99.90;;;;;;6168929;23;20439;-96
2021/03/05 03:20:37;;;;;;;428.23;19.13;;;2.40;99.90;;;;;;6293319;22;20394;-96
2021/03/05 03:26:28;;;;;;;1201.18;56.53;;;2.50;99.90;;;;;;6171512;23;20387;-95
2021/03/05 03:29:26;;;;;;;895.67;44.95;;;2.50;99.90;;;;;;6145856;23;20447;-96
2021/03/05 03:36:02;;;;;;;928.33;40.55;;;2.60;99.90;;;;;;6055541;23;20404;-96
2021/03/05 03:38:56;;;;;;;855.27;44.43;;;2.50;99.90;;;;;;5918808;24;20422;-96
2021/03/05 03:42:10;;;;;;;1146.25;53.85;;;2.70;99.90;;;;;;5882785;24;20373;-96
2021/03/05 03:44:58;;;;;;;581.70;29.95;;;2.70;99.90;;;;;;5898570;24;20410;-95
2021/03/05 03:55:13;;;;;;;1699.95;77.63;;;2.80;99.90;;;;;;5819445;24;20423;-95
2021/03/05 04:01:16;;;;;;;1205.20;53.75;;;2.80;99.90;;;;;;6263264;22;20408;-96
2021/03/05 04:04:25;;;;;;;759.00;33.60;;;2.80;99.90;;;;;;6151779;23;20376;-96
2021/03/05 04:07:31;;;;;;;1084.20;48.75;;;2.80;99.90;;;;;;6170966;23;20390;-96
2021/03/05 04:10:46;;;;;;;310.92;17.30;;;2.90;99.90;;;;;;6036462;23;20412;-96
2021/03/05 04:13:39;;;;;;;0.45;0.45;;;2.90;99.90;;;;;;6063590;23;20397;-96
2021/03/05 04:16:10;;;;;;;0.10;0.10;;;2.80;99.90;;;;;;6058579;23;20415;-96
2021/03/05 04:18:45;;;;;;;0.55;0.55;;;2.90;99.90;;;;;;6080977;23;20406;-95
2021/03/05 04:30:54;;;;;;;45.97;12.27;;;2.80;99.90;;;;;;6195463;23;20376;-96
2021/03/05 04:33:43;;;;;;;;;;;;;;;;;;;;;
2021/03/05 04:36:56;;;;;;;33.23;11.63;;;2.80;99.90;;;;;;6225281;22;20403;31
2021/03/05 04:39:48;;;;;;;;;;;;;;;;;;;;;
2021/03/05 04:45:46;;;;;;;17.27;7.43;;;2.80;99.90;;;;;;6260818;23;20386;-96
2021/03/05 04:48:59;;;;;;;35.00;13.73;;;2.70;99.90;;;;;;6256323;22;20843;-96
2021/03/05 04:51:47;;;;;;;42.50;11.88;;;2.70;99.90;;;;;;6101688;23;20389;-95
2021/03/05 04:54:21;;;;;;;58.80;19.50;;;2.70;99.90;;;;;;6078246;23;20378;-95
2021/03/05 04:57:11;;;;;;;16.38;6.10;;;2.70;99.90;;;;;;6082881;23;20390;-96
2021/03/05 05:00:08;;;;;;;14.57;6.30;;;2.70;99.90;;;;;;6102066;23;20489;-95
2021/03/05 05:16:33;;;;;;;;;;;;;;;;;;;;;
2021/03/05 05:20:10;;;;;;;690.35;32.78;;;2.40;99.90;;;;;;6220222;23;20406;-96
2021/03/05 05:23:01;;;;;;;40.92;9.75;;;2.40;99.90;;;;;;6066347;23;20536;-95
2021/03/05 05:25:29;;;;;;;33.63;12.35;;;2.30;99.90;;;;;;6080149;23;20459;-95
2021/03/05 05:27:55;;;;;;;8.40;5.22;;;2.30;99.90;;;;;;6108061;23;20414;-96
2021/03/05 05:36:22;;;;;;;4.60;3.70;;;1.20;99.90;;;;;;6274478;22;20390;-96
2021/03/05 05:51:27;;;;;;;12.15;8.60;;;0.60;99.90;;;;;;6247959;22;20386;-96
2021/03/05 05:55:01;;;;;;;;;;;;;;;;;;;;;
2021/03/05 06:14:05;;;;;;;;;;;;;;;;;;;;;
2021/03/05 06:22:35;;;;;;;15.27;10.50;;;0.70;99.90;;;;;;6252769;22;20393;-96
2021/03/05 06:29:45;;;;;;;11.43;8.55;;;0.80;99.90;;;;;;6227290;23;20399;-96
2021/03/05 06:48:09;;;;;;;11.48;8.23;;;0.70;99.90;;;;;;6279871;22;20392;-96
2021/03/05 06:59:54;;;;;;;13.13;8.77;;;0.80;99.90;;;;;;6208824;22;20401;-94
2021/03/05 07:13:29;;;;;;;8.82;6.07;;;0.80;99.90;;;;;;6242248;22;20379;-96
2021/03/05 07:55:52;;;;;;;18.58;11.10;;;0.50;99.40;;;;;;6263288;22;20382;-95
2021/03/05 08:09:12;;;;;;;23.80;12.25;;;0.60;99.40;;;;;;6236167;22;20473;-95
2021/03/05 08:14:26;;;;;;;23.10;11.83;;;0.70;98.70;;;;;;6256854;22;20456;-93
2021/03/05 08:16:53;;;;;;;28.25;14.32;;;0.60;97.90;;;;;;6224638;23;20465;-90
2021/03/05 08:19:20;;;;;;;27.80;13.40;;;0.70;99.90;;;;;;6225056;23;20881;-90
2021/03/05 08:21:59;;;;;;;29.92;14.65;;;0.70;98.90;;;;;;6224062;23;20394;-88
2021/03/05 08:25:22;;;;;;;28.33;12.68;;;0.70;99.00;;;;;;6238116;22;20369;-96
2021/03/05 08:46:37;;;;;;;23.30;12.20;;;0.90;98.50;;;;;;6225552;22;20444;-93
2021/03/05 13:22:06;;;;;;;9.57;6.90;;;2.80;91.90;;;;;;6259706;22;20385;-96
2021/03/05 13:25:43;;;;;;;9.45;6.95;;;2.80;93.20;;;;;;6156183;23;20394;-95
2021/03/05 13:45:19;;;;;;;11.20;8.07;;;2.50;92.80;;;;;;6232409;22;20460;-96
2021/03/05 13:52:14;;;;;;;11.18;7.70;;;2.30;95.00;;;;;;6234446;22;20418;-95
2021/03/05 13:54:42;;;;;;;9.40;6.75;;;1.90;94.50;;;;;;6195160;23;20399;-93
2021/03/05 13:57:09;;;;;;;8.35;6.22;;;1.70;94.00;;;;;;6193771;23;20780;-96
2021/03/05 13:59:37;;;;;;;8.65;6.38;;;1.40;95.00;;;;;;6196468;23;20403;-95
2021/03/05 14:02:04;;;;;;;6.35;5.15;;;1.40;96.10;;;;;;6198059;23;20458;-94
2021/03/05 14:04:34;;;;;;;7.72;5.57;;;1.30;94.30;;;;;;6200601;23;20390;-95
2021/03/05 14:07:05;;;;;;;7.35;5.05;;;1.20;96.30;;;;;;6189217;23;20404;-96
2021/03/05 14:09:54;;;;;;;7.10;5.13;;;1.00;94.70;;;;;;6206527;23;20357;-95
2021/03/05 14:13:06;;;;;;;7.43;5.05;;;0.80;95.00;;;;;;6213549;22;20412;-96
2021/03/05 14:15:59;;;;;;;5.40;4.85;;;0.80;96.30;;;;;;6214668;23;20414;-94
2021/03/05 14:18:43;;;;;;;7.40;5.50;;;1.10;96.70;;;;;;6210710;23;20380;-96
2021/03/05 14:21:15;;;;;;;9.53;4.63;;;1.30;96.70;;;;;;6221034;23;20392;-95
2021/03/05 14:23:43;;;;;;;6.97;4.67;;;1.20;94.60;;;;;;6219380;23;20387;-96
2021/03/05 14:26:12;;;;;;;6.03;4.20;;;1.10;94.60;;;;;;6219050;23;20394;-95
2021/03/05 14:28:39;;;;;;;5.82;4.10;;;0.90;93.90;;;;;;6219997;23;20427;-96
2021/03/05 14:31:11;;;;;;;6.25;3.97;;;0.80;94.50;;;;;;6219296;23;20387;-96
2021/03/05 14:33:38;;;;;;;4.78;4.03;;;0.60;93.80;;;;;;6219459;23;20475;-96
2021/03/05 14:36:06;;;;;;;6.15;4.90;;;0.30;94.40;;;;;;6238447;22;20475;-95
2021/03/05 14:42:24;;;;;;;5.43;4.60;;;0.20;94.80;;;;;;6259125;23;20382;-96
2021/03/05 14:45:59;;;;;;;5.63;5.00;;;0.30;94.70;;;;;;6261117;23;20386;-96
2021/03/05 15:25:40;;;;;;;4.88;3.80;;;-0.30;96.30;;;;;;6234858;22;20406;-93
2021/03/05 15:28:26;;;;;;;5.43;4.22;;;-0.40;95.50;;;;;;6259969;22;20453;-94
2021/03/05 15:34:41;;;;;;;5.25;4.10;;;-0.40;96.10;;;;;;6241447;22;20384;-94
2021/03/05 15:44:22;;;;;;;6.07;4.38;;;-0.40;96.00;;;;;;6139378;23;20482;-96
2021/03/05 15:47:33;;;;;;;;;;;;;;;;;;;;;
2021/03/05 15:50:39;;;;;;;;;;;;;;;;;;;;;
2021/03/05 15:53:56;;;;;;;6.60;4.80;;;-0.30;95.00;;;;;;5998686;24;20397;-95
2021/03/05 15:57:02;;;;;;;6.32;4.88;;;-0.50;94.50;;;;;;6062923;23;20388;-95
2021/03/05 16:00:42;;;;;;;6.20;5.03;;;-0.50;95.10;;;;;;5939592;24;20415;-94
2021/03/05 16:03:48;;;;;;;7.57;5.70;;;-0.50;95.90;;;;;;5957001;24;20475;-96
2021/03/05 16:06:52;;;;;;;6.90;5.03;;;-0.40;97.10;;;;;;5950994;24;20476;-96
2021/03/05 16:09:36;;;;;;;7.22;5.68;;;-0.40;96.40;;;;;;5913487;24;20402;-94
2021/03/05 16:12:55;;;;;;;6.97;5.60;;;-0.50;96.80;;;;;;5928116;24;20404;-96
2021/03/05 16:16:06;;;;;;;;;;;;;;;;;;;;;
2021/03/05 16:19:10;;;;;;;7.63;5.90;;;-0.40;96.70;;;;;;5951712;24;20521;-94
2021/03/05 16:22:05;;;;;;;8.13;6.30;;;-0.40;97.20;;;;;;5978062;24;20417;-96
2021/03/05 16:25:18;;;;;;;8.32;6.53;;;-0.40;96.60;;;;;;5962213;24;20486;-95
2021/03/05 16:31:30;;;;;;;8.88;6.13;;;-0.40;96.80;;;;;;6220581;22;20386;-96
2021/03/05 16:34:22;;;;;;;11.02;7.78;;;-0.50;95.90;;;;;;6198452;23;20442;-95
2021/03/05 16:40:11;;;;;;;9.27;7.47;;;-0.50;96.60;;;;;;6204518;23;20383;-95
2021/03/05 16:42:43;;;;;;;8.48;6.40;;;-0.60;96.60;;;;;;6248260;22;20394;-96
2021/03/05 16:45:11;;;;;;;8.63;6.75;;;-0.70;96.00;;;;;;6248715;23;20924;-94
2021/03/05 16:47:37;;;;;;;8.07;6.72;;;-0.70;96.00;;;;;;6249719;23;20386;-93
2021/03/05 16:50:05;;;;;;;9.38;7.13;;;-0.70;96.60;;;;;;6249523;23;20444;-93
2021/03/05 16:52:35;;;;;;;11.05;8.52;;;-0.70;97.10;;;;;;6250326;23;20468;-96
2021/03/05 16:55:04;;;;;;;10.80;8.10;;;-0.80;97.00;;;;;;6246097;23;20385;-95
2021/03/05 16:57:30;;;;;;;14.32;10.35;;;-0.70;97.00;;;;;;6247588;23;20449;-95
2021/03/05 17:00:12;;;;;;;10.48;8.75;;;-0.70;96.30;;;;;;6248460;23;20461;-96
2021/03/05 17:02:39;;;;;;;11.43;8.18;;;-0.60;97.20;;;;;;6247273;23;20414;-95
2021/03/05 17:05:08;;;;;;;10.02;7.60;;;-0.60;97.40;;;;;;6246666;23;20747;-94
2021/03/05 17:07:36;;;;;;;10.18;7.95;;;-0.70;96.10;;;;;;6248706;23;20461;-95
2021/03/05 17:10:05;;;;;;;10.48;7.82;;;-0.90;95.90;;;;;;6248858;23;20390;-95
2021/03/05 17:12:32;;;;;;;11.52;8.52;;;-1.00;96.20;;;;;;6249194;23;20421;-96
2021/03/05 17:14:59;;;;;;;13.05;9.55;;;-1.10;95.80;;;;;;6225668;23;20452;-95
2021/03/05 17:17:26;;;;;;;15.90;8.88;;;-1.20;96.90;;;;;;6252316;23;20382;-96
2021/03/05 17:19:54;;;;;;;11.63;9.00;;;-1.30;96.50;;;;;;6254807;23;20424;-95
2021/03/05 17:22:26;;;;;;;13.43;9.40;;;-1.50;96.50;;;;;;6219709;23;20390;-92
2021/03/05 17:24:53;;;;;;;20.35;13.32;;;-1.50;97.00;;;;;;6270289;22;20382;-92
2021/03/05 17:27:23;;;;;;;20.85;13.60;;;-1.60;97.90;;;;;;6267355;22;20369;-96
2021/03/05 17:30:07;;;;;;;17.23;12.23;;;-1.60;97.60;;;;;;6268189;23;20391;-96
2021/03/05 17:33:04;;;;;;;14.68;10.93;;;-1.40;97.30;;;;;;6235358;22;20389;-95
2021/03/05 17:35:55;;;;;;;15.18;10.65;;;-1.40;97.30;;;;;;6183641;23;20384;-96
2021/03/05 17:38:22;;;;;;;13.65;10.45;;;-1.30;97.70;;;;;;6114568;23;20887;-96
2021/03/05 17:41:00;;;;;;;14.47;10.23;;;-1.30;97.50;;;;;;6139149;23;20403;-95
2021/03/05 17:43:30;;;;;;;15.90;11.03;;;-1.30;96.80;;;;;;6118513;23;20458;-96
2021/03/05 17:45:57;;;;;;;16.23;10.88;;;-1.40;97.20;;;;;;6114931;23;20411;-95
2021/03/05 17:51:31;;;;;;;14.10;10.20;;;-1.50;97.40;;;;;;6226416;23;20379;-95
2021/03/05 17:54:07;;;;;;;13.68;10.63;;;-1.60;97.00;;;;;;6179716;23;20481;-96
2021/03/05 17:59:50;;;;;;;16.15;12.48;;;-1.80;96.70;;;;;;6191361;23;20458;-95
2021/03/05 18:02:17;;;;;;;14.70;11.07;;;-1.80;97.30;;;;;;6161249;23;20389;-95
2021/03/05 18:04:47;;;;;;;14.68;10.98;;;-1.80;97.30;;;;;;6138954;23;20591;-94
2021/03/05 18:07:17;;;;;;;16.58;11.35;;;-1.80;97.40;;;;;;6190355;23;20398;-94
2021/03/05 18:09:44;;;;;;;15.93;11.27;;;-1.80;97.30;;;;;;6163588;23;20485;-95
2021/03/05 18:12:12;;;;;;;15.53;11.20;;;-1.90;97.20;;;;;;6169865;23;20440;-96
2021/03/05 18:14:42;;;;;;;15.43;10.32;;;-1.90;97.30;;;;;;6195913;23;20391;-94
2021/03/05 18:17:08;;;;;;;16.37;12.23;;;-2.00;97.10;;;;;;6190225;23;20393;-96
2021/03/05 18:19:37;;;;;;;18.85;11.77;;;-2.10;97.80;;;;;;6165780;23;20397;-96
2021/03/05 18:22:08;;;;;;;16.45;11.82;;;-2.10;97.60;;;;;;6172019;23;20393;-95
2021/03/05 18:24:42;;;;;;;16.17;11.37;;;-2.20;97.90;;;;;;6180586;23;20401;-93
2021/03/05 18:27:09;;;;;;;15.80;10.88;;;-2.30;97.80;;;;;;6186013;23;20416;-95
2021/03/05 18:29:38;;;;;;;14.93;11.00;;;-2.40;97.20;;;;;;6168261;23;20890;-94
2021/03/05 18:32:05;;;;;;;17.63;11.38;;;-2.50;97.40;;;;;;6161920;23;20500;-94
2021/03/05 18:34:32;;;;;;;18.27;11.90;;;-2.40;97.70;;;;;;6162603;23;20424;-96
2021/03/05 18:36:59;;;;;;;15.98;10.85;;;-2.40;97.90;;;;;;6163565;23;20393;-95
2021/03/05 18:39:27;;;;;;;15.87;11.60;;;-2.40;97.20;;;;;;6165559;23;20405;-94
2021/03/05 18:41:58;;;;;;;16.45;11.27;;;-2.50;97.40;;;;;;6165635;23;20385;-95
2021/03/05 18:44:25;;;;;;;17.27;11.10;;;-2.60;97.40;;;;;;6165476;23;20453;-95
2021/03/05 18:46:52;;;;;;;16.52;11.65;;;-2.70;97.10;;;;;;6164689;23;20472;-95
2021/03/05 18:49:34;;;;;;;16.40;11.45;;;-2.80;97.50;;;;;;6168709;23;20412;-96
2021/03/05 18:52:01;;;;;;;17.88;11.77;;;-2.80;97.30;;;;;;6176685;23;20447;-96
2021/03/05 18:54:28;;;;;;;17.13;12.10;;;-2.90;97.70;;;;;;6187822;23;20373;-95
2021/03/05 18:56:56;;;;;;;17.35;12.40;;;-2.90;97.70;;;;;;6187837;23;20382;-96
2021/03/05 18:59:25;;;;;;;16.38;11.00;;;-3.00;97.60;;;;;;6184653;23;20391;-96
2021/03/05 19:01:52;;;;;;;17.73;10.52;;;-3.00;97.60;;;;;;6189189;23;20387;-95
2021/03/05 19:04:19;;;;;;;17.25;12.30;;;-3.10;97.40;;;;;;6157734;23;20421;-96
2021/03/05 19:06:46;;;;;;;16.63;11.10;;;-3.10;97.80;;;;;;6181941;23;20418;-96
2021/03/05 19:09:15;;;;;;;17.13;9.93;;;-3.10;97.60;;;;;;6183705;23;20387;-96
2021/03/05 19:11:42;;;;;;;12.30;9.07;;;-3.20;97.00;;;;;;6202246;23;20951;-94
2021/03/05 19:14:09;;;;;;;16.20;9.80;;;-3.10;96.90;;;;;;6204250;23;20387;-96
2021/03/05 19:16:37;;;;;;;15.32;10.13;;;-3.20;96.90;;;;;;6199359;23;20415;-96
2021/03/05 19:19:05;;;;;;;13.17;9.00;;;-3.30;96.40;;;;;;6190481;23;20855;-95
2021/03/05 19:21:32;;;;;;;13.23;8.73;;;-3.30;97.20;;;;;;6158869;23;20502;-94
2021/03/05 19:23:59;;;;;;;15.30;10.48;;;-3.40;96.70;;;;;;6184717;23;20454;-94
2021/03/05 19:26:27;;;;;;;17.63;10.80;;;-3.40;96.60;;;;;;6181534;23;20397;-94
2021/03/05 19:28:54;;;;;;;16.30;9.65;;;-3.40;96.90;;;;;;6181882;23;20393;-94
2021/03/05 19:31:20;;;;;;;15.35;9.10;;;-3.40;97.00;;;;;;6182013;23;20407;-95
2021/03/05 19:33:47;;;;;;;14.73;9.25;;;-3.40;97.00;;;;;;6181408;23;20875;-93
2021/03/05 19:36:14;;;;;;;15.88;8.70;;;-3.30;96.80;;;;;;6180793;23;20482;-93
2021/03/05 19:38:41;;;;;;;13.57;8.63;;;-3.30;96.70;;;;;;6157477;23;20458;-94
2021/03/05 19:41:08;;;;;;;13.13;8.73;;;-3.40;96.40;;;;;;6180988;23;20914;-95
2021/03/05 19:43:36;;;;;;;14.32;8.95;;;-3.40;96.30;;;;;;6181400;23;20387;-93
2021/03/05 19:46:03;;;;;;;13.60;8.65;;;-3.30;96.30;;;;;;6180468;23;20395;-93
2021/03/05 19:48:31;;;;;;;17.25;10.20;;;-3.40;96.20;;;;;;6183151;23;20549;-93
2021/03/05 19:50:58;;;;;;;14.52;9.25;;;-3.40;97.20;;;;;;6184476;23;20869;-95
2021/03/05 19:53:25;;;;;;;14.52;9.02;;;-3.60;96.70;;;;;;6131689;23;20395;-93
2021/03/05 19:55:52;;;;;;;13.70;8.77;;;-3.60;97.10;;;;;;6181263;23;20483;-96
2021/03/05 19:58:19;;;;;;;13.27;8.88;;;-3.60;97.10;;;;;;6181022;23;20804;-95
2021/03/05 20:00:46;;;;;;;14.35;8.18;;;-3.70;97.00;;;;;;6181022;23;20402;-93
2021/03/05 20:03:13;;;;;;;15.25;9.23;;;-3.70;96.60;;;;;;6181301;23;20406;-93
2021/03/05 20:05:40;;;;;;;12.27;8.00;;;-3.70;96.50;;;;;;6191159;23;20421;-93
2021/03/05 20:08:08;;;;;;;12.60;7.47;;;-3.60;96.90;;;;;;6182171;23;20387;-95
2021/03/05 20:10:35;;;;;;;11.55;7.80;;;-3.70;96.40;;;;;;6136322;23;20426;-94
2021/03/05 20:13:03;;;;;;;11.35;7.53;;;-3.70;96.30;;;;;;6163504;23;20386;-96
2021/03/05 20:15:32;;;;;;;13.45;8.07;;;-3.80;96.70;;;;;;6142927;23;20402;-96
2021/03/05 20:18:16;;;;;;;12.18;7.07;;;-3.90;96.60;;;;;;6193129;23;20390;-95
2021/03/05 20:21:19;;;;;;;12.48;7.68;;;-3.90;96.80;;;;;;6181595;23;20478;-95
2021/03/05 20:23:49;;;;;;;15.63;7.50;;;-4.00;96.40;;;;;;6197007;23;20426;-95
2021/03/05 20:26:20;;;;;;;11.35;6.47;;;-4.10;96.70;;;;;;6162373;23;20407;-95
2021/03/05 20:28:56;;;;;;;11.07;6.73;;;-4.00;96.50;;;;;;6188727;23;20391;-96
2021/03/05 20:31:42;;;;;;;12.05;6.57;;;-4.00;96.60;;;;;;6096154;23;20410;-95
2021/03/05 20:34:31;;;;;;;11.60;7.10;;;-4.10;96.20;;;;;;6128173;23;20386;-95
2021/03/05 20:37:05;;;;;;;11.65;6.20;;;-4.10;96.30;;;;;;6188553;23;20450;-95
2021/03/05 20:39:36;;;;;;;12.18;5.75;;;-4.10;96.50;;;;;;6188712;23;20401;-95
2021/03/05 20:42:06;;;;;;;10.73;5.53;;;-4.20;96.10;;;;;;6166355;23;20398;-95
2021/03/05 20:44:35;;;;;;;10.20;5.95;;;-4.20;96.30;;;;;;6190515;23;20426;-96
2021/03/05 20:47:09;;;;;;;10.73;5.95;;;-4.20;96.20;;;;;;6144125;23;20401;-96
2021/03/05 20:49:42;;;;;;;14.75;6.35;;;-4.20;96.10;;;;;;6140243;23;20443;-96
2021/03/05 20:52:20;;;;;;;10.07;6.10;;;-4.20;96.20;;;;;;6145397;23;20371;-95
2021/03/05 20:54:57;;;;;;;10.87;5.90;;;-4.30;96.20;;;;;;6168529;23;20858;-96
2021/03/05 20:57:43;;;;;;;9.82;5.90;;;-4.30;95.90;;;;;;6137210;23;20385;-94
2021/03/05 21:00:38;;;;;;;12.40;6.05;;;-4.40;96.10;;;;;;6190522;23;20384;-93
2021/03/05 21:03:14;;;;;;;10.93;6.63;;;-4.40;96.00;;;;;;6160944;23;20385;-92
2021/03/05 21:05:45;;;;;;;12.45;6.07;;;-4.60;96.20;;;;;;6181433;23;20408;-92
2021/03/05 21:08:15;;;;;;;12.63;6.03;;;-4.70;96.80;;;;;;6172791;23;20370;-96
2021/03/05 21:10:57;;;;;;;12.52;5.70;;;-4.70;96.60;;;;;;6172028;23;20401;-93
2021/03/05 21:13:48;;;;;;;9.90;6.13;;;-4.70;96.90;;;;;;6199231;23;20400;-95
2021/03/05 21:16:50;;;;;;;12.18;6.40;;;-4.70;96.80;;;;;;6198889;23;20415;-96
2021/03/05 21:19:31;;;;;;;9.20;5.30;;;-4.70;96.90;;;;;;6174720;23;20444;-93
2021/03/05 21:22:45;;;;;;;12.38;5.65;;;-4.80;96.80;;;;;;6176323;23;20436;-96
2021/03/05 21:26:12;;;;;;;13.50;5.90;;;-5.00;96.90;;;;;;6201630;23;20389;-95
2021/03/05 21:29:00;;;;;;;10.15;5.78;;;-5.00;97.10;;;;;;6197269;23;20777;-96
2021/03/05 21:32:08;;;;;;;10.65;5.90;;;-5.00;97.30;;;;;;6150777;23;20383;-95
2021/03/05 21:34:41;;;;;;;11.48;5.93;;;-5.10;97.10;;;;;;6174799;23;20417;-96
2021/03/05 21:55:05;;;;;;;10.82;5.90;;;-5.20;97.00;;;;;;6227648;22;20387;-94
